sensor_id;sensor_type;location;lat;lon;timestamp;temperature;humidity
32694;DHT22;19084;44.716;10.218;2022-10-14T00:00:08;14.70;99.90
32694;DHT22;19084;44.716;10.218;2022-10-14T00:02:42;14.70;99.90
32694;DHT22;19084;44.716;10.218;2022-10-14T00:05:15;14.60;99.90
32694;DHT22;19084;44.716;10.218;2022-10-14T00:07:47;14.60;99.90
32694;DHT22;19084;44.716;10.218;2022-10-14T00:10:20;14.60;99.90
32694;DHT22;19084;44.716;10.218;2022-10-14T00:12:53;14.50;99.90
32694;DHT22;19084;44.716;10.218;2022-10-14T00:15:26;14.50;99.90
32694;DHT22;19084;44.716;10.218;2022-10-14T00:17:58;14.50;99.90
32694;DHT22;19084;44.716;10.218;2022-10-14T00:20:31;14.60;99.90
32694;DHT22;19084;44.716;10.218;2022-10-14T00:23:03;14.50;99.90
32694;DHT22;19084;44.716;10.218;2022-10-14T00:25:37;14.60;99.90
32694;DHT22;19084;44.716;10.218;2022-10-14T00:28:10;14.50;99.90
32694;DHT22;19084;44.716;10.218;2022-10-14T00:30:52;14.50;99.90
32694;DHT22;19084;44.716;10.218;2022-10-14T00:33:26;14.50;99.90
32694;DHT22;19084;44.716;10.218;2022-10-14T00:36:04;14.50;99.90
32694;DHT22;19084;44.716;10.218;2022-10-14T00:38:38;14.50;99.90
32694;DHT22;19084;44.716;10.218;2022-10-14T00:41:15;14.50;99.90
32694;DHT22;19084;44.716;10.218;2022-10-14T00:43:56;14.50;99.90
32694;DHT22;19084;44.716;10.218;2022-10-14T00:46:33;14.50;99.90
32694;DHT22;19084;44.716;10.218;2022-10-14T00:49:16;14.50;99.90
32694;DHT22;19084;44.716;10.218;2022-10-14T00:51:54;14.50;99.90
32694;DHT22;19084;44.716;10.218;2022-10-14T00:54:33;14.50;99.90
32694;DHT22;19084;44.716;10.218;2022-10-14T00:57:06;14.50;99.90
32694;DHT22;19084;44.716;10.218;2022-10-14T00:59:40;14.50;99.90
32694;DHT22;19084;44.716;10.218;2022-10-14T01:02:13;14.50;99.90
32694;DHT22;19084;44.716;10.218;2022-10-14T01:04:46;14.50;99.90
32694;DHT22;19084;44.716;10.218;2022-10-14T01:13:26;14.60;99.90
32694;DHT22;19084;44.716;10.218;2022-10-14T01:18:57;14.60;99.90
32694;DHT22;19084;44.716;10.218;2022-10-14T01:27:14;14.50;99.90
32694;DHT22;19084;44.716;10.218;2022-10-14T01:30:05;14.50;99.90
32694;DHT22;19084;44.716;10.218;2022-10-14T01:33:01;14.50;99.90
32694;DHT22;19084;44.716;10.218;2022-10-14T01:41:03;14.60;99.90
32694;DHT22;19084;44.716;10.218;2022-10-14T01:43:38;14.60;99.90
32694;DHT22;19084;44.716;10.218;2022-10-14T01:46:13;14.60;99.90
32694;DHT22;19084;44.716;10.218;2022-10-14T01:48:51;14.70;99.90
32694;DHT22;19084;44.716;10.218;2022-10-14T01:51:37;14.70;99.90
32694;DHT22;19084;44.716;10.218;2022-10-14T01:54:16;14.70;99.90
32694;DHT22;19084;44.716;10.218;2022-10-14T01:56:53;14.70;99.90
32694;DHT22;19084;44.716;10.218;2022-10-14T01:59:28;14.80;99.90
32694;DHT22;19084;44.716;10.218;2022-10-14T02:02:01;14.80;99.90
32694;DHT22;19084;44.716;10.218;2022-10-14T02:04:34;14.80;99.90
32694;DHT22;19084;44.716;10.218;2022-10-14T02:10:04;14.90;99.90
32694;DHT22;19084;44.716;10.218;2022-10-14T02:12:53;14.90;99.90
32694;DHT22;19084;44.716;10.218;2022-10-14T02:18:48;14.90;99.90
32694;DHT22;19084;44.716;10.218;2022-10-14T02:21:40;14.80;99.90
32694;DHT22;19084;44.716;10.218;2022-10-14T02:24:22;14.80;99.90
32694;DHT22;19084;44.716;10.218;2022-10-14T02:26:59;14.70;99.90
32694;DHT22;19084;44.716;10.218;2022-10-14T02:29:33;14.70;99.90
32694;DHT22;19084;44.716;10.218;2022-10-14T02:32:07;14.60;99.90
32694;DHT22;19084;44.716;10.218;2022-10-14T02:34:43;14.50;99.90
32694;DHT22;19084;44.716;10.218;2022-10-14T02:37:20;14.50;99.90
32694;DHT22;19084;44.716;10.218;2022-10-14T02:40:05;14.40;99.90
32694;DHT22;19084;44.716;10.218;2022-10-14T02:42:39;14.40;99.90
32694;DHT22;19084;44.716;10.218;2022-10-14T02:45:13;14.40;99.90
32694;DHT22;19084;44.716;10.218;2022-10-14T02:47:49;14.40;99.90
32694;DHT22;19084;44.716;10.218;2022-10-14T02:50:22;14.40;99.90
32694;DHT22;19084;44.716;10.218;2022-10-14T02:52:55;14.40;99.90
32694;DHT22;19084;44.716;10.218;2022-10-14T02:55:28;14.40;99.90
32694;DHT22;19084;44.716;10.218;2022-10-14T02:58:00;14.40;99.90
32694;DHT22;19084;44.716;10.218;2022-10-14T03:00:33;14.30;99.90
32694;DHT22;19084;44.716;10.218;2022-10-14T03:03:06;14.20;99.90
32694;DHT22;19084;44.716;10.218;2022-10-14T03:05:39;14.10;99.90
32694;DHT22;19084;44.716;10.218;2022-10-14T03:08:16;14.10;99.90
32694;DHT22;19084;44.716;10.218;2022-10-14T03:10:50;14.00;99.90
32694;DHT22;19084;44.716;10.218;2022-10-14T03:13:23;14.10;99.90
32694;DHT22;19084;44.716;10.218;2022-10-14T03:15:56;14.00;99.90
32694;DHT22;19084;44.716;10.218;2022-10-14T03:18:30;14.10;99.90
32694;DHT22;19084;44.716;10.218;2022-10-14T03:21:13;14.00;99.90
32694;DHT22;19084;44.716;10.218;2022-10-14T03:23:47;14.10;99.90
32694;DHT22;19084;44.716;10.218;2022-10-14T03:26:21;14.10;99.90
32694;DHT22;19084;44.716;10.218;2022-10-14T03:28:56;14.10;99.90
32694;DHT22;19084;44.716;10.218;2022-10-14T03:31:39;14.00;99.90
32694;DHT22;19084;44.716;10.218;2022-10-14T03:34:26;14.00;99.90
32694;DHT22;19084;44.716;10.218;2022-10-14T03:37:08;14.00;99.90
32694;DHT22;19084;44.716;10.218;2022-10-14T03:39:48;13.90;99.90
32694;DHT22;19084;44.716;10.218;2022-10-14T03:42:22;13.90;99.90
32694;DHT22;19084;44.716;10.218;2022-10-14T03:44:56;13.80;99.90
32694;DHT22;19084;44.716;10.218;2022-10-14T03:47:32;13.80;99.90
32694;DHT22;19084;44.716;10.218;2022-10-14T03:50:05;13.70;99.90
32694;DHT22;19084;44.716;10.218;2022-10-14T03:52:43;13.80;99.90
32694;DHT22;19084;44.716;10.218;2022-10-14T03:55:25;13.80;99.90
32694;DHT22;19084;44.716;10.218;2022-10-14T03:57:59;13.80;99.90
32694;DHT22;19084;44.716;10.218;2022-10-14T04:00:33;13.80;99.90
32694;DHT22;19084;44.716;10.218;2022-10-14T04:03:22;13.80;99.90
32694;DHT22;19084;44.716;10.218;2022-10-14T04:05:55;13.90;99.90
32694;DHT22;19084;44.716;10.218;2022-10-14T04:08:30;13.90;99.90
32694;DHT22;19084;44.716;10.218;2022-10-14T04:11:11;13.90;99.90
32694;DHT22;19084;44.716;10.218;2022-10-14T04:13:45;14.00;99.90
32694;DHT22;19084;44.716;10.218;2022-10-14T04:16:17;14.00;99.90
32694;DHT22;19084;44.716;10.218;2022-10-14T04:19:04;14.00;99.90
32694;DHT22;19084;44.716;10.218;2022-10-14T04:21:37;14.10;99.90
32694;DHT22;19084;44.716;10.218;2022-10-14T04:24:11;14.10;99.90
32694;DHT22;19084;44.716;10.218;2022-10-14T04:26:51;14.20;99.90
32694;DHT22;19084;44.716;10.218;2022-10-14T04:29:34;14.20;99.90
32694;DHT22;19084;44.716;10.218;2022-10-14T04:32:13;14.20;99.90
32694;DHT22;19084;44.716;10.218;2022-10-14T04:34:46;14.20;99.90
32694;DHT22;19084;44.716;10.218;2022-10-14T04:37:23;14.20;99.90
32694;DHT22;19084;44.716;10.218;2022-10-14T04:40:04;14.20;99.90
32694;DHT22;19084;44.716;10.218;2022-10-14T04:42:45;14.20;99.90
32694;DHT22;19084;44.716;10.218;2022-10-14T04:45:25;14.20;99.90
32694;DHT22;19084;44.716;10.218;2022-10-14T04:48:05;14.20;99.90
32694;DHT22;19084;44.716;10.218;2022-10-14T04:50:44;14.20;99.90
32694;DHT22;19084;44.716;10.218;2022-10-14T04:53:32;14.20;99.90
32694;DHT22;19084;44.716;10.218;2022-10-14T04:56:13;14.20;99.90
32694;DHT22;19084;44.716;10.218;2022-10-14T04:58:58;14.20;99.90
32694;DHT22;19084;44.716;10.218;2022-10-14T05:01:51;14.20;99.90
32694;DHT22;19084;44.716;10.218;2022-10-14T05:04:25;14.20;99.90
32694;DHT22;19084;44.716;10.218;2022-10-14T05:07:00;14.20;99.90
32694;DHT22;19084;44.716;10.218;2022-10-14T05:09:34;14.30;99.90
32694;DHT22;19084;44.716;10.218;2022-10-14T05:12:10;14.20;99.90
32694;DHT22;19084;44.716;10.218;2022-10-14T05:14:51;14.30;99.90
32694;DHT22;19084;44.716;10.218;2022-10-14T05:17:32;14.30;99.90
32694;DHT22;19084;44.716;10.218;2022-10-14T05:20:06;14.30;99.90
32694;DHT22;19084;44.716;10.218;2022-10-14T05:22:43;14.20;99.90
32694;DHT22;19084;44.716;10.218;2022-10-14T05:25:16;14.20;99.90
32694;DHT22;19084;44.716;10.218;2022-10-14T05:27:49;14.20;99.90
32694;DHT22;19084;44.716;10.218;2022-10-14T05:30:22;14.20;99.90
32694;DHT22;19084;44.716;10.218;2022-10-14T05:32:57;14.20;99.90
32694;DHT22;19084;44.716;10.218;2022-10-14T05:35:29;14.20;99.90
32694;DHT22;19084;44.716;10.218;2022-10-14T05:38:24;14.20;99.90
32694;DHT22;19084;44.716;10.218;2022-10-14T05:40:57;14.20;99.90
32694;DHT22;19084;44.716;10.218;2022-10-14T05:43:30;14.20;99.90
32694;DHT22;19084;44.716;10.218;2022-10-14T05:46:08;14.10;99.90
32694;DHT22;19084;44.716;10.218;2022-10-14T05:48:45;14.10;99.90
32694;DHT22;19084;44.716;10.218;2022-10-14T05:51:19;14.00;99.90
32694;DHT22;19084;44.716;10.218;2022-10-14T05:53:59;14.00;99.90
32694;DHT22;19084;44.716;10.218;2022-10-14T05:56:31;14.00;99.90
32694;DHT22;19084;44.716;10.218;2022-10-14T05:59:04;13.90;99.90
32694;DHT22;19084;44.716;10.218;2022-10-14T06:01:38;13.90;99.90
32694;DHT22;19084;44.716;10.218;2022-10-14T06:04:16;13.90;99.90
32694;DHT22;19084;44.716;10.218;2022-10-14T06:06:50;13.90;99.90
32694;DHT22;19084;44.716;10.218;2022-10-14T06:09:22;13.80;99.90
32694;DHT22;19084;44.716;10.218;2022-10-14T06:11:57;13.90;99.90
32694;DHT22;19084;44.716;10.218;2022-10-14T06:14:29;13.90;99.90
32694;DHT22;19084;44.716;10.218;2022-10-14T06:17:04;14.00;99.90
32694;DHT22;19084;44.716;10.218;2022-10-14T06:19:37;13.90;99.90
32694;DHT22;19084;44.716;10.218;2022-10-14T06:22:10;14.00;99.90
32694;DHT22;19084;44.716;10.218;2022-10-14T06:24:43;14.00;99.90
32694;DHT22;19084;44.716;10.218;2022-10-14T06:27:15;14.00;99.90
32694;DHT22;19084;44.716;10.218;2022-10-14T06:29:48;14.00;99.90
32694;DHT22;19084;44.716;10.218;2022-10-14T06:32:20;14.10;99.90
32694;DHT22;19084;44.716;10.218;2022-10-14T06:34:54;14.10;99.90
32694;DHT22;19084;44.716;10.218;2022-10-14T06:37:26;14.10;99.90
32694;DHT22;19084;44.716;10.218;2022-10-14T06:39:59;14.20;99.90
32694;DHT22;19084;44.716;10.218;2022-10-14T06:42:33;14.20;99.90
32694;DHT22;19084;44.716;10.218;2022-10-14T06:45:08;14.20;99.90
32694;DHT22;19084;44.716;10.218;2022-10-14T06:47:40;14.30;99.90
32694;DHT22;19084;44.716;10.218;2022-10-14T06:50:13;14.30;99.90
32694;DHT22;19084;44.716;10.218;2022-10-14T06:52:47;14.40;99.90
32694;DHT22;19084;44.716;10.218;2022-10-14T06:55:20;14.50;99.90
32694;DHT22;19084;44.716;10.218;2022-10-14T06:57:54;14.60;99.90
32694;DHT22;19084;44.716;10.218;2022-10-14T07:00:27;14.60;99.90
32694;DHT22;19084;44.716;10.218;2022-10-14T07:03:00;14.80;99.90
32694;DHT22;19084;44.716;10.218;2022-10-14T07:05:32;14.90;99.90
32694;DHT22;19084;44.716;10.218;2022-10-14T07:08:06;15.00;99.90
32694;DHT22;19084;44.716;10.218;2022-10-14T07:10:47;15.00;99.90
32694;DHT22;19084;44.716;10.218;2022-10-14T07:15:53;15.20;99.90
32694;DHT22;19084;44.716;10.218;2022-10-14T07:18:26;15.30;99.90
32694;DHT22;19084;44.716;10.218;2022-10-14T07:21:02;15.40;99.90
32694;DHT22;19084;44.716;10.218;2022-10-14T07:23:35;15.50;99.90
32694;DHT22;19084;44.716;10.218;2022-10-14T07:26:07;15.60;99.90
32694;DHT22;19084;44.716;10.218;2022-10-14T07:28:40;15.60;99.90
32694;DHT22;19084;44.716;10.218;2022-10-14T07:31:13;15.70;99.90
32694;DHT22;19084;44.716;10.218;2022-10-14T07:33:46;15.80;99.90
32694;DHT22;19084;44.716;10.218;2022-10-14T07:36:18;15.90;99.90
32694;DHT22;19084;44.716;10.218;2022-10-14T07:38:54;16.00;99.90
32694;DHT22;19084;44.716;10.218;2022-10-14T07:41:27;16.10;99.90
32694;DHT22;19084;44.716;10.218;2022-10-14T07:44:01;16.20;99.90
32694;DHT22;19084;44.716;10.218;2022-10-14T07:46:40;16.20;99.90
32694;DHT22;19084;44.716;10.218;2022-10-14T07:49:16;16.30;99.90
32694;DHT22;19084;44.716;10.218;2022-10-14T07:51:50;16.40;99.90
32694;DHT22;19084;44.716;10.218;2022-10-14T07:54:25;16.50;99.90
32694;DHT22;19084;44.716;10.218;2022-10-14T07:57:01;16.50;99.90
32694;DHT22;19084;44.716;10.218;2022-10-14T07:59:33;16.60;99.90
32694;DHT22;19084;44.716;10.218;2022-10-14T08:02:06;16.60;99.90
32694;DHT22;19084;44.716;10.218;2022-10-14T08:04:39;16.60;99.90
32694;DHT22;19084;44.716;10.218;2022-10-14T08:07:12;16.60;99.90
32694;DHT22;19084;44.716;10.218;2022-10-14T08:09:46;16.60;99.90
32694;DHT22;19084;44.716;10.218;2022-10-14T08:12:19;16.70;99.90
32694;DHT22;19084;44.716;10.218;2022-10-14T08:14:55;16.80;99.90
32694;DHT22;19084;44.716;10.218;2022-10-14T08:17:28;16.80;99.90
32694;DHT22;19084;44.716;10.218;2022-10-14T08:20:01;16.90;99.90
32694;DHT22;19084;44.716;10.218;2022-10-14T08:22:34;17.00;99.90
32694;DHT22;19084;44.716;10.218;2022-10-14T08:25:07;17.00;99.90
32694;DHT22;19084;44.716;10.218;2022-10-14T08:27:39;17.00;99.90
32694;DHT22;19084;44.716;10.218;2022-10-14T08:30:12;17.10;99.90
32694;DHT22;19084;44.716;10.218;2022-10-14T08:32:44;17.10;99.90
32694;DHT22;19084;44.716;10.218;2022-10-14T08:35:17;17.10;99.90
32694;DHT22;19084;44.716;10.218;2022-10-14T08:37:58;17.10;99.90
32694;DHT22;19084;44.716;10.218;2022-10-14T08:40:44;17.20;99.90
32694;DHT22;19084;44.716;10.218;2022-10-14T08:43:30;17.30;99.90
32694;DHT22;19084;44.716;10.218;2022-10-14T08:46:12;17.30;99.90
32694;DHT22;19084;44.716;10.218;2022-10-14T08:48:49;17.40;99.90
32694;DHT22;19084;44.716;10.218;2022-10-14T08:51:22;17.50;99.90
32694;DHT22;19084;44.716;10.218;2022-10-14T08:54:00;17.60;99.90
32694;DHT22;19084;44.716;10.218;2022-10-14T08:56:38;17.60;99.90
32694;DHT22;19084;44.716;10.218;2022-10-14T08:59:14;17.70;99.90
32694;DHT22;19084;44.716;10.218;2022-10-14T09:01:51;17.80;99.90
32694;DHT22;19084;44.716;10.218;2022-10-14T09:04:25;17.80;99.90
32694;DHT22;19084;44.716;10.218;2022-10-14T09:06:58;17.90;99.90
32694;DHT22;19084;44.716;10.218;2022-10-14T09:09:37;18.00;99.90
32694;DHT22;19084;44.716;10.218;2022-10-14T09:12:15;18.00;99.90
32694;DHT22;19084;44.716;10.218;2022-10-14T09:17:42;18.20;99.90
32694;DHT22;19084;44.716;10.218;2022-10-14T09:20:21;18.20;99.90
32694;DHT22;19084;44.716;10.218;2022-10-14T09:25:53;18.20;99.90
32694;DHT22;19084;44.716;10.218;2022-10-14T09:28:35;18.30;99.90
32694;DHT22;19084;44.716;10.218;2022-10-14T09:31:11;18.40;99.90
32694;DHT22;19084;44.716;10.218;2022-10-14T09:33:44;18.40;99.90
32694;DHT22;19084;44.716;10.218;2022-10-14T09:36:19;18.50;99.90
32694;DHT22;19084;44.716;10.218;2022-10-14T09:38:53;18.60;99.90
32694;DHT22;19084;44.716;10.218;2022-10-14T09:41:29;18.70;99.90
32694;DHT22;19084;44.716;10.218;2022-10-14T09:46:57;18.80;99.90
32694;DHT22;19084;44.716;10.218;2022-10-14T09:49:36;18.80;99.90
32694;DHT22;19084;44.716;10.218;2022-10-14T09:52:32;18.80;99.90
32694;DHT22;19084;44.716;10.218;2022-10-14T09:55:18;18.90;99.90
32694;DHT22;19084;44.716;10.218;2022-10-14T09:58:00;18.90;99.90
32694;DHT22;19084;44.716;10.218;2022-10-14T10:00:36;19.00;99.90
32694;DHT22;19084;44.716;10.218;2022-10-14T10:03:24;19.00;99.90
32694;DHT22;19084;44.716;10.218;2022-10-14T10:06:02;19.00;99.90
32694;DHT22;19084;44.716;10.218;2022-10-14T10:08:40;19.00;99.90
32694;DHT22;19084;44.716;10.218;2022-10-14T10:11:13;19.00;99.90
32694;DHT22;19084;44.716;10.218;2022-10-14T10:13:46;19.10;99.90
32694;DHT22;19084;44.716;10.218;2022-10-14T10:16:23;19.10;99.90
32694;DHT22;19084;44.716;10.218;2022-10-14T10:27:43;19.40;99.90
32694;DHT22;19084;44.716;10.218;2022-10-14T10:44:38;19.70;99.90
32694;DHT22;19084;44.716;10.218;2022-10-14T10:47:19;19.80;99.90
32694;DHT22;19084;44.716;10.218;2022-10-14T10:50:15;19.90;99.90
32694;DHT22;19084;44.716;10.218;2022-10-14T11:00:58;20.00;99.90
32694;DHT22;19084;44.716;10.218;2022-10-14T11:03:52;20.00;99.90
32694;DHT22;19084;44.716;10.218;2022-10-14T11:06:32;20.10;99.90
32694;DHT22;19084;44.716;10.218;2022-10-14T11:12:57;20.30;99.90
32694;DHT22;19084;44.716;10.218;2022-10-14T11:18:26;20.30;99.90
32694;DHT22;19084;44.716;10.218;2022-10-14T11:21:08;20.30;99.90
32694;DHT22;19084;44.716;10.218;2022-10-14T11:29:54;20.20;99.90
32694;DHT22;19084;44.716;10.218;2022-10-14T11:35:21;20.40;99.90
32694;DHT22;19084;44.716;10.218;2022-10-14T11:38:01;20.50;99.90
32694;DHT22;19084;44.716;10.218;2022-10-14T11:40:43;20.60;99.90
32694;DHT22;19084;44.716;10.218;2022-10-14T11:43:20;20.60;99.90
32694;DHT22;19084;44.716;10.218;2022-10-14T11:46:00;20.60;99.90
32694;DHT22;19084;44.716;10.218;2022-10-14T11:48:39;20.70;99.90
32694;DHT22;19084;44.716;10.218;2022-10-14T11:57:03;20.80;99.90
32694;DHT22;19084;44.716;10.218;2022-10-14T11:59:47;20.90;99.90
32694;DHT22;19084;44.716;10.218;2022-10-14T12:11:01;21.00;99.90
32694;DHT22;19084;44.716;10.218;2022-10-14T12:13:41;21.00;99.90
32694;DHT22;19084;44.716;10.218;2022-10-14T12:16:18;21.00;99.90
32694;DHT22;19084;44.716;10.218;2022-10-14T12:18:55;21.10;99.90
32694;DHT22;19084;44.716;10.218;2022-10-14T12:21:46;21.20;99.90
32694;DHT22;19084;44.716;10.218;2022-10-14T12:24:25;21.30;99.90
32694;DHT22;19084;44.716;10.218;2022-10-14T12:27:04;21.40;99.90
32694;DHT22;19084;44.716;10.218;2022-10-14T12:29:42;21.40;99.90
32694;DHT22;19084;44.716;10.218;2022-10-14T12:34:55;21.30;99.90
32694;DHT22;19084;44.716;10.218;2022-10-14T12:45:21;21.30;99.90
32694;DHT22;19084;44.716;10.218;2022-10-14T12:50:43;21.30;99.90
32694;DHT22;19084;44.716;10.218;2022-10-14T12:55:58;21.60;99.90
32694;DHT22;19084;44.716;10.218;2022-10-14T12:58:40;21.40;99.90
32694;DHT22;19084;44.716;10.218;2022-10-14T13:01:16;21.40;99.90
32694;DHT22;19084;44.716;10.218;2022-10-14T13:03:57;21.30;99.90
32694;DHT22;19084;44.716;10.218;2022-10-14T13:14:36;21.50;99.90
32694;DHT22;19084;44.716;10.218;2022-10-14T13:23:28;21.70;99.90
32694;DHT22;19084;44.716;10.218;2022-10-14T13:26:22;21.80;99.90
32694;DHT22;19084;44.716;10.218;2022-10-14T13:37:33;22.00;99.90
32694;DHT22;19084;44.716;10.218;2022-10-14T13:43:06;21.90;99.90
32694;DHT22;19084;44.716;10.218;2022-10-14T13:45:43;21.90;99.90
32694;DHT22;19084;44.716;10.218;2022-10-14T13:48:28;21.80;99.90
32694;DHT22;19084;44.716;10.218;2022-10-14T13:54:15;21.70;99.90
32694;DHT22;19084;44.716;10.218;2022-10-14T13:57:12;21.80;99.90
32694;DHT22;19084;44.716;10.218;2022-10-14T14:00:30;21.70;99.90
32694;DHT22;19084;44.716;10.218;2022-10-14T14:03:17;21.60;99.90
32694;DHT22;19084;44.716;10.218;2022-10-14T14:05:52;21.60;99.90
32694;DHT22;19084;44.716;10.218;2022-10-14T14:08:29;21.50;99.90
32694;DHT22;19084;44.716;10.218;2022-10-14T14:11:19;21.50;99.90
32694;DHT22;19084;44.716;10.218;2022-10-14T14:17:06;21.40;99.90
32694;DHT22;19084;44.716;10.218;2022-10-14T14:20:10;21.30;99.90
32694;DHT22;19084;44.716;10.218;2022-10-14T14:22:48;21.30;99.90
32694;DHT22;19084;44.716;10.218;2022-10-14T14:25:24;21.30;99.90
32694;DHT22;19084;44.716;10.218;2022-10-14T14:28:13;21.30;99.90
32694;DHT22;19084;44.716;10.218;2022-10-14T14:30:51;21.30;99.90
32694;DHT22;19084;44.716;10.218;2022-10-14T14:33:32;21.30;99.90
32694;DHT22;19084;44.716;10.218;2022-10-14T14:36:09;21.30;99.90
32694;DHT22;19084;44.716;10.218;2022-10-14T14:39:01;21.20;99.90
32694;DHT22;19084;44.716;10.218;2022-10-14T14:41:34;21.20;99.90
32694;DHT22;19084;44.716;10.218;2022-10-14T14:44:11;21.20;99.90
32694;DHT22;19084;44.716;10.218;2022-10-14T14:47:00;21.20;99.90
32694;DHT22;19084;44.716;10.218;2022-10-14T14:49:36;21.10;99.90
32694;DHT22;19084;44.716;10.218;2022-10-14T14:52:11;21.00;99.90
32694;DHT22;19084;44.716;10.218;2022-10-14T14:54:46;21.00;99.90
32694;DHT22;19084;44.716;10.218;2022-10-14T14:57:21;21.00;99.90
32694;DHT22;19084;44.716;10.218;2022-10-14T15:00:00;21.00;99.90
32694;DHT22;19084;44.716;10.218;2022-10-14T15:02:34;20.90;99.90
32694;DHT22;19084;44.716;10.218;2022-10-14T15:05:08;20.80;99.90
32694;DHT22;19084;44.716;10.218;2022-10-14T15:07:42;20.80;99.90
32694;DHT22;19084;44.716;10.218;2022-10-14T15:10:22;20.60;99.90
32694;DHT22;19084;44.716;10.218;2022-10-14T15:12:57;20.60;99.90
32694;DHT22;19084;44.716;10.218;2022-10-14T15:15:33;20.50;99.90
32694;DHT22;19084;44.716;10.218;2022-10-14T15:18:14;20.50;99.90
32694;DHT22;19084;44.716;10.218;2022-10-14T15:20:49;20.50;99.90
32694;DHT22;19084;44.716;10.218;2022-10-14T15:31:42;20.20;99.90
32694;DHT22;19084;44.716;10.218;2022-10-14T15:34:19;20.20;99.90
32694;DHT22;19084;44.716;10.218;2022-10-14T15:36:53;20.20;99.90
32694;DHT22;19084;44.716;10.218;2022-10-14T15:39:26;20.10;99.90
32694;DHT22;19084;44.716;10.218;2022-10-14T15:41:59;20.10;99.90
32694;DHT22;19084;44.716;10.218;2022-10-14T15:44:36;20.10;99.90
32694;DHT22;19084;44.716;10.218;2022-10-14T15:47:11;20.10;99.90
32694;DHT22;19084;44.716;10.218;2022-10-14T15:49:51;20.10;99.90
32694;DHT22;19084;44.716;10.218;2022-10-14T15:52:24;20.10;99.90
32694;DHT22;19084;44.716;10.218;2022-10-14T15:54:58;20.00;99.90
32694;DHT22;19084;44.716;10.218;2022-10-14T15:57:31;20.00;99.90
32694;DHT22;19084;44.716;10.218;2022-10-14T16:00:06;19.90;99.90
32694;DHT22;19084;44.716;10.218;2022-10-14T16:02:42;19.80;99.90
32694;DHT22;19084;44.716;10.218;2022-10-14T16:05:16;19.80;99.90
32694;DHT22;19084;44.716;10.218;2022-10-14T16:07:51;19.70;99.90
32694;DHT22;19084;44.716;10.218;2022-10-14T16:10:24;19.60;99.90
32694;DHT22;19084;44.716;10.218;2022-10-14T16:13:03;19.60;99.90
32694;DHT22;19084;44.716;10.218;2022-10-14T16:15:41;19.50;99.90
32694;DHT22;19084;44.716;10.218;2022-10-14T16:18:15;19.40;99.90
32694;DHT22;19084;44.716;10.218;2022-10-14T16:20:51;19.40;99.90
32694;DHT22;19084;44.716;10.218;2022-10-14T16:23:24;19.30;99.90
32694;DHT22;19084;44.716;10.218;2022-10-14T16:26:04;19.20;99.90
32694;DHT22;19084;44.716;10.218;2022-10-14T16:28:37;19.20;99.90
32694;DHT22;19084;44.716;10.218;2022-10-14T16:31:13;19.00;99.90
32694;DHT22;19084;44.716;10.218;2022-10-14T16:33:49;19.00;99.90
32694;DHT22;19084;44.716;10.218;2022-10-14T16:36:27;18.90;99.90
32694;DHT22;19084;44.716;10.218;2022-10-14T16:39:01;18.80;99.90
32694;DHT22;19084;44.716;10.218;2022-10-14T16:41:34;18.80;99.90
32694;DHT22;19084;44.716;10.218;2022-10-14T16:44:07;18.70;99.90
32694;DHT22;19084;44.716;10.218;2022-10-14T16:46:57;18.70;99.90
32694;DHT22;19084;44.716;10.218;2022-10-14T16:49:48;18.50;99.90
32694;DHT22;19084;44.716;10.218;2022-10-14T16:52:22;18.50;99.90
32694;DHT22;19084;44.716;10.218;2022-10-14T16:54:57;18.40;99.90
32694;DHT22;19084;44.716;10.218;2022-10-14T16:57:30;18.40;99.90
32694;DHT22;19084;44.716;10.218;2022-10-14T17:00:03;18.30;99.90
32694;DHT22;19084;44.716;10.218;2022-10-14T17:02:36;18.20;99.90
32694;DHT22;19084;44.716;10.218;2022-10-14T17:05:09;18.20;99.90
32694;DHT22;19084;44.716;10.218;2022-10-14T17:07:42;18.20;99.90
32694;DHT22;19084;44.716;10.218;2022-10-14T17:10:17;18.10;99.90
32694;DHT22;19084;44.716;10.218;2022-10-14T17:12:50;18.10;99.90
32694;DHT22;19084;44.716;10.218;2022-10-14T17:15:25;18.00;99.90
32694;DHT22;19084;44.716;10.218;2022-10-14T17:17:57;18.00;99.90
32694;DHT22;19084;44.716;10.218;2022-10-14T17:20:30;17.90;99.90
32694;DHT22;19084;44.716;10.218;2022-10-14T17:23:03;17.90;99.90
32694;DHT22;19084;44.716;10.218;2022-10-14T17:25:43;17.90;99.90
32694;DHT22;19084;44.716;10.218;2022-10-14T17:28:17;17.80;99.90
32694;DHT22;19084;44.716;10.218;2022-10-14T17:30:51;17.80;99.90
32694;DHT22;19084;44.716;10.218;2022-10-14T17:33:24;17.70;99.90
32694;DHT22;19084;44.716;10.218;2022-10-14T17:35:58;17.70;99.90
32694;DHT22;19084;44.716;10.218;2022-10-14T17:38:33;17.60;99.90
32694;DHT22;19084;44.716;10.218;2022-10-14T17:41:08;17.60;99.90
32694;DHT22;19084;44.716;10.218;2022-10-14T17:43:42;17.50;99.90
32694;DHT22;19084;44.716;10.218;2022-10-14T17:46:16;17.40;99.90
32694;DHT22;19084;44.716;10.218;2022-10-14T17:48:52;17.40;99.90
32694;DHT22;19084;44.716;10.218;2022-10-14T17:51:27;17.40;99.90
32694;DHT22;19084;44.716;10.218;2022-10-14T17:54:02;17.40;99.90
32694;DHT22;19084;44.716;10.218;2022-10-14T17:56:36;17.40;99.90
32694;DHT22;19084;44.716;10.218;2022-10-14T17:59:10;17.30;99.90
32694;DHT22;19084;44.716;10.218;2022-10-14T18:01:45;17.30;99.90
32694;DHT22;19084;44.716;10.218;2022-10-14T18:04:36;17.20;99.90
32694;DHT22;19084;44.716;10.218;2022-10-14T18:07:10;17.10;99.90
32694;DHT22;19084;44.716;10.218;2022-10-14T18:09:43;17.10;99.90
32694;DHT22;19084;44.716;10.218;2022-10-14T18:12:16;17.00;99.90
32694;DHT22;19084;44.716;10.218;2022-10-14T18:14:48;17.00;99.90
32694;DHT22;19084;44.716;10.218;2022-10-14T18:17:21;17.00;99.90
32694;DHT22;19084;44.716;10.218;2022-10-14T18:19:54;17.00;99.90
32694;DHT22;19084;44.716;10.218;2022-10-14T18:22:29;17.00;99.90
32694;DHT22;19084;44.716;10.218;2022-10-14T18:25:02;17.00;99.90
32694;DHT22;19084;44.716;10.218;2022-10-14T18:27:36;17.00;99.90
32694;DHT22;19084;44.716;10.218;2022-10-14T18:30:10;17.00;99.90
32694;DHT22;19084;44.716;10.218;2022-10-14T18:32:43;17.00;99.90
32694;DHT22;19084;44.716;10.218;2022-10-14T18:35:15;16.90;99.90
32694;DHT22;19084;44.716;10.218;2022-10-14T18:37:48;16.90;99.90
32694;DHT22;19084;44.716;10.218;2022-10-14T18:40:21;16.90;99.90
32694;DHT22;19084;44.716;10.218;2022-10-14T18:42:54;16.90;99.90
32694;DHT22;19084;44.716;10.218;2022-10-14T18:45:33;16.80;99.90
32694;DHT22;19084;44.716;10.218;2022-10-14T18:48:06;16.70;99.90